Time;durP1;ratioP1;P1;durP2;ratioP2;P2;SDS_P1;SDS_P2;PMS_P1;PMS_P2;Temp;Humidity;BMP_temperature;BMP_pressure;BME280_temperature;BME280_humidity;BME280_pressure;Samples;Min_cycle;Max_cycle;Signal;HPM_P1;HPM_P2
2022/07/03 00:01:44;;;;;;;11.50;10.60;;;15.80;99.90;;;;;;5069265;28;20193;-50
2022/07/03 00:04:10;;;;;;;11.30;10.40;;;15.70;99.90;;;;;;5063449;28;20514;-51
2022/07/03 00:06:36;;;;;;;11.70;10.80;;;15.70;99.90;;;;;;5069984;28;20174;-52
2022/07/03 00:09:04;;;;;;;10.87;9.97;;;15.70;99.90;;;;;;5068726;28;20244;-52
2022/07/03 00:11:30;;;;;;;11.40;10.53;;;15.70;99.90;;;;;;5068715;28;20169;-51
2022/07/03 00:13:56;;;;;;;11.17;10.23;;;15.60;99.90;;;;;;5072225;28;20443;-54
2022/07/03 00:16:21;;;;;;;10.80;9.93;;;15.60;99.90;;;;;;5075524;28;20439;-49
2022/07/03 00:18:47;;;;;;;10.97;10.17;;;15.60;99.90;;;;;;5069743;28;20280;-50
2022/07/03 00:21:41;;;;;;;11.10;10.20;;;15.50;99.90;;;;;;5074823;28;20200;-54
2022/07/03 00:24:24;;;;;;;10.70;9.73;;;15.50;99.90;;;;;;5060041;28;20225;-52
2022/07/03 00:26:52;;;;;;;11.87;10.87;;;15.40;99.90;;;;;;5070662;28;20485;-52
2022/07/03 00:29:21;;;;;;;11.30;10.40;;;15.30;99.90;;;;;;5075596;28;20867;-53
2022/07/03 00:31:47;;;;;;;11.27;10.37;;;15.30;99.90;;;;;;5075384;28;20419;-50
2022/07/03 00:34:15;;;;;;;11.50;10.47;;;15.20;99.90;;;;;;5067022;28;20547;-51
2022/07/03 00:36:44;;;;;;;11.60;10.60;;;15.20;99.90;;;;;;5075655;28;20412;-51
2022/07/03 00:39:10;;;;;;;11.37;10.37;;;15.20;99.90;;;;;;5075202;28;20842;-51
2022/07/03 00:41:36;;;;;;;11.20;10.30;;;15.10;99.90;;;;;;5075021;28;20415;-53
2022/07/03 00:44:03;;;;;;;11.33;10.30;;;15.10;99.90;;;;;;5060996;28;20771;-53
2022/07/03 00:46:30;;;;;;;11.13;10.23;;;15.10;99.90;;;;;;5055122;28;20909;-50
2022/07/03 00:48:57;;;;;;;11.37;10.27;;;15.10;99.90;;;;;;5066273;28;20841;-51
2022/07/03 00:51:27;;;;;;;11.03;10.13;;;15.00;99.90;;;;;;5056697;28;20434;-53
2022/07/03 00:53:56;;;;;;;10.80;10.00;;;14.90;99.90;;;;;;5073079;28;20459;-53
2022/07/03 00:56:28;;;;;;;10.77;9.87;;;14.90;99.90;;;;;;5075142;28;20840;-51
2022/07/03 00:58:57;;;;;;;11.73;10.73;;;14.90;99.90;;;;;;5061650;28;20498;-51
2022/07/03 01:01:29;;;;;;;11.50;10.50;;;14.90;99.90;;;;;;5075281;28;20416;-52
2022/07/03 01:04:17;;;;;;;15.00;11.90;;;14.80;99.90;;;;;;5074508;28;20446;-54
2022/07/03 01:06:53;;;;;;;11.20;10.30;;;14.80;99.90;;;;;;5074920;28;20408;-50
2022/07/03 01:09:29;;;;;;;10.80;9.90;;;14.70;99.90;;;;;;5074734;28;20480;-47
2022/07/03 01:12:12;;;;;;;10.90;10.10;;;14.70;99.90;;;;;;5062111;28;20461;-55
2022/07/03 01:14:49;;;;;;;11.13;10.23;;;14.70;99.90;;;;;;5073796;28;20481;-51
2022/07/03 01:17:25;;;;;;;11.77;10.87;;;14.60;99.90;;;;;;5074853;28;20506;-53
2022/07/03 01:20:00;;;;;;;12.27;11.27;;;14.60;99.90;;;;;;5073158;28;20850;-51
2022/07/03 01:22:28;;;;;;;12.30;11.30;;;14.50;99.90;;;;;;5074798;28;20407;-53
2022/07/03 01:25:21;;;;;;;11.37;10.47;;;14.50;99.90;;;;;;5071732;28;20420;-53
2022/07/03 01:27:56;;;;;;;11.90;10.93;;;14.50;99.90;;;;;;5069859;28;20439;-53
2022/07/03 01:30:23;;;;;;;11.70;10.80;;;14.40;99.90;;;;;;5071706;28;20512;-49
2022/07/03 01:33:17;;;;;;;12.57;10.97;;;14.50;99.90;;;;;;5068515;28;20461;-50
2022/07/03 01:36:00;;;;;;;11.47;10.57;;;14.40;99.90;;;;;;5060767;28;20421;-51
2022/07/03 01:38:28;;;;;;;11.67;10.77;;;14.40;99.90;;;;;;5071416;28;20808;-50
2022/07/03 01:40:55;;;;;;;11.53;10.60;;;14.30;99.90;;;;;;5071126;28;20510;-55
2022/07/03 01:43:28;;;;;;;10.37;9.57;;;14.30;99.90;;;;;;5070130;28;20813;-55
2022/07/03 01:45:57;;;;;;;11.60;10.60;;;14.30;99.90;;;;;;5069807;28;20523;-51
2022/07/03 01:48:24;;;;;;;11.20;10.30;;;14.30;99.90;;;;;;5071626;28;20388;-52
2022/07/03 01:50:50;;;;;;;12.07;11.07;;;14.30;99.90;;;;;;5071248;28;20762;-55
2022/07/03 01:53:17;;;;;;;11.43;10.53;;;14.30;99.90;;;;;;5071887;28;20420;-51
2022/07/03 01:55:43;;;;;;;11.87;10.87;;;14.20;99.90;;;;;;5070972;28;20526;-51
2022/07/03 01:58:10;;;;;;;11.30;10.40;;;14.20;99.90;;;;;;5071796;28;20502;-50
2022/07/03 02:01:02;;;;;;;12.47;11.27;;;14.10;99.90;;;;;;5070592;28;20237;-51
2022/07/03 02:03:33;;;;;;;11.73;10.63;;;14.10;99.90;;;;;;5029002;28;21094;-54
2022/07/03 02:06:21;;;;;;;12.60;11.40;;;14.10;99.90;;;;;;5057933;28;20491;-51
2022/07/03 02:09:03;;;;;;;10.70;9.80;;;14.00;99.90;;;;;;5068179;28;20439;-53
2022/07/03 02:11:35;;;;;;;12.43;11.20;;;14.00;99.90;;;;;;5071405;28;20430;-55
2022/07/03 02:14:15;;;;;;;12.53;11.53;;;14.00;99.90;;;;;;5071002;28;20427;-54
2022/07/03 02:16:49;;;;;;;12.43;11.30;;;14.00;99.90;;;;;;5064691;28;20423;-54
2022/07/03 02:19:17;;;;;;;11.90;10.87;;;14.00;99.90;;;;;;5061688;28;20467;-51
2022/07/03 02:21:50;;;;;;;11.80;10.80;;;13.90;99.90;;;;;;5070862;28;20408;-49
2022/07/03 02:24:20;;;;;;;12.63;11.60;;;13.90;99.90;;;;;;5061648;28;20435;-52
2022/07/03 02:27:04;;;;;;;11.60;10.70;;;13.90;99.90;;;;;;5069379;28;20929;-54
2022/07/03 02:29:46;;;;;;;11.70;10.70;;;13.90;99.90;;;;;;5070262;28;20427;-52
2022/07/03 02:32:17;;;;;;;12.47;11.37;;;13.80;99.90;;;;;;5069170;28;20427;-49
2022/07/03 02:34:47;;;;;;;12.33;11.33;;;13.80;99.90;;;;;;5070911;28;20412;-54
2022/07/03 02:37:18;;;;;;;12.33;11.33;;;13.80;99.90;;;;;;5069924;28;20435;-51
2022/07/03 02:39:57;;;;;;;12.67;11.70;;;13.70;99.90;;;;;;5069078;28;20457;-52
2022/07/03 02:42:47;;;;;;;12.03;11.03;;;13.70;99.90;;;;;;5068464;28;20435;-52
2022/07/03 02:45:12;;;;;;;12.67;11.67;;;13.70;99.90;;;;;;5063598;28;20909;-55
2022/07/03 02:48:05;;;;;;;12.53;11.53;;;13.70;99.90;;;;;;5069734;28;20412;-50
2022/07/03 02:50:33;;;;;;;12.50;11.50;;;13.70;99.90;;;;;;5064842;28;20264;-50
2022/07/03 02:53:04;;;;;;;12.60;11.60;;;13.60;99.90;;;;;;5069075;28;20420;-50
2022/07/03 02:55:46;;;;;;;12.40;11.40;;;13.60;99.90;;;;;;5069265;28;20462;-50
2022/07/03 02:58:31;;;;;;;12.73;11.73;;;13.50;99.90;;;;;;5069345;28;20498;-52
2022/07/03 03:01:08;;;;;;;12.20;11.10;;;13.60;99.90;;;;;;5069216;28;20451;-53
2022/07/03 03:03:34;;;;;;;13.17;11.97;;;13.50;99.90;;;;;;5069184;28;20454;-55
2022/07/03 03:06:11;;;;;;;12.13;11.13;;;13.50;99.90;;;;;;5069412;28;21028;-51
2022/07/03 03:08:46;;;;;;;12.40;11.40;;;13.50;99.90;;;;;;5069306;28;21242;-52
2022/07/03 03:11:42;;;;;;;13.87;11.37;;;13.60;99.90;;;;;;5069805;28;20506;-53
2022/07/03 03:14:19;;;;;;;11.93;10.83;;;13.60;99.90;;;;;;5069308;28;20412;-53
2022/07/03 03:16:52;;;;;;;12.00;11.00;;;13.60;99.90;;;;;;5069734;28;20925;-53
2022/07/03 03:19:24;;;;;;;11.43;10.33;;;13.70;99.90;;;;;;5067079;28;20474;-55
2022/07/03 03:22:15;;;;;;;11.63;10.63;;;13.70;99.90;;;;;;5068489;28;20917;-51
2022/07/03 03:24:41;;;;;;;12.47;11.43;;;13.70;99.90;;;;;;5069437;28;20424;-52
2022/07/03 03:27:07;;;;;;;11.97;10.97;;;13.70;99.90;;;;;;5068941;28;20424;-51
2022/07/03 03:29:33;;;;;;;11.80;10.80;;;13.70;99.90;;;;;;5051048;28;20707;-53
2022/07/03 03:31:58;;;;;;;11.70;10.80;;;13.80;99.90;;;;;;5050303;28;20562;-54
2022/07/03 03:34:25;;;;;;;11.33;10.43;;;13.80;99.90;;;;;;5069202;28;20407;-52
2022/07/03 03:36:51;;;;;;;11.20;10.30;;;13.80;99.90;;;;;;5068388;28;20487;-51
2022/07/03 03:39:16;;;;;;;12.30;11.30;;;13.80;99.90;;;;;;5069331;28;20454;-50
2022/07/03 03:41:42;;;;;;;10.77;9.97;;;13.80;99.90;;;;;;5067121;28;20185;-55
2022/07/03 03:44:08;;;;;;;12.20;11.10;;;13.80;99.90;;;;;;5069194;28;20197;-50
2022/07/03 03:46:33;;;;;;;11.93;10.93;;;13.80;99.90;;;;;;5069110;28;20691;-52
2022/07/03 03:48:59;;;;;;;12.23;11.23;;;13.90;99.90;;;;;;5067319;28;20563;-55
2022/07/03 03:51:25;;;;;;;12.13;11.13;;;13.90;99.90;;;;;;5068884;28;20256;-51
2022/07/03 03:53:50;;;;;;;11.07;10.17;;;14.00;99.90;;;;;;5069184;28;20672;-52
2022/07/03 03:56:16;;;;;;;11.10;10.10;;;14.00;99.90;;;;;;5068573;28;20204;-50
2022/07/03 03:58:43;;;;;;;11.93;10.80;;;14.00;99.90;;;;;;5068440;28;20189;-49
2022/07/03 04:01:10;;;;;;;10.90;10.00;;;14.10;99.90;;;;;;5067117;28;20169;-53
2022/07/03 04:03:37;;;;;;;10.17;9.27;;;14.20;99.90;;;;;;5069107;28;20419;-51
2022/07/03 04:06:03;;;;;;;11.10;10.20;;;14.20;99.90;;;;;;5069301;28;20412;-50
2022/07/03 04:08:30;;;;;;;11.00;10.20;;;14.30;99.90;;;;;;5068666;28;20956;-51
2022/07/03 04:10:56;;;;;;;10.13;9.33;;;14.50;99.90;;;;;;5069117;28;20419;-51
2022/07/03 04:13:21;;;;;;;9.73;9.03;;;14.60;99.90;;;;;;5066756;28;21339;-55
2022/07/03 04:15:48;;;;;;;10.33;9.43;;;14.70;99.90;;;;;;5068696;28;20489;-54
2022/07/03 04:18:14;;;;;;;9.47;8.77;;;14.90;99.90;;;;;;5069570;28;20749;-55
2022/07/03 04:20:40;;;;;;;9.67;8.87;;;15.00;99.90;;;;;;5068518;28;20463;-51
2022/07/03 04:23:06;;;;;;;9.13;8.20;;;15.10;99.90;;;;;;5068887;28;20178;-50
2022/07/03 04:25:31;;;;;;;9.00;8.30;;;15.30;99.90;;;;;;5067634;28;20174;-50
2022/07/03 04:27:57;;;;;;;9.37;8.57;;;15.40;99.90;;;;;;5068451;28;20557;-54
2022/07/03 04:30:23;;;;;;;8.60;7.90;;;15.50;99.90;;;;;;5069011;28;20616;-51
2022/07/03 04:32:49;;;;;;;9.13;8.33;;;15.60;99.90;;;;;;5065688;28;20193;-52
2022/07/03 04:35:15;;;;;;;9.50;8.30;;;15.90;99.90;;;;;;5069038;28;20209;-51
2022/07/03 04:37:42;;;;;;;9.07;7.73;;;16.00;99.90;;;;;;5068338;28;20803;-51
2022/07/03 04:40:08;;;;;;;8.03;7.43;;;16.10;99.90;;;;;;5068676;28;20836;-50
2022/07/03 04:42:34;;;;;;;8.07;7.27;;;16.20;99.90;;;;;;5065977;28;20759;-51
2022/07/03 04:45:01;;;;;;;8.00;7.30;;;16.40;99.90;;;;;;5068810;28;20994;-49
2022/07/03 04:47:26;;;;;;;7.90;7.10;;;16.50;99.90;;;;;;5068595;28;20907;-52
2022/07/03 04:49:52;;;;;;;7.80;7.10;;;16.70;99.90;;;;;;5068294;28;20441;-49
2022/07/03 04:52:17;;;;;;;7.63;6.93;;;16.70;99.90;;;;;;5068514;28;20294;-50
2022/07/03 04:54:43;;;;;;;7.30;6.70;;;16.80;99.90;;;;;;5066669;28;20190;-54
2022/07/03 04:57:09;;;;;;;7.50;7.00;;;17.00;99.90;;;;;;5068454;28;20576;-51
2022/07/03 04:59:35;;;;;;;7.27;6.77;;;17.10;99.90;;;;;;5069973;28;20619;-55
2022/07/03 05:02:00;;;;;;;7.50;6.80;;;17.20;99.90;;;;;;5071882;28;20188;-49
2022/07/03 05:04:26;;;;;;;7.77;7.13;;;17.40;99.90;;;;;;5071194;28;20227;-50
2022/07/03 05:06:52;;;;;;;8.20;7.60;;;17.50;99.90;;;;;;5069376;28;20191;-52
2022/07/03 05:09:18;;;;;;;8.37;7.57;;;17.50;99.90;;;;;;5072424;28;20173;-50
2022/07/03 05:11:44;;;;;;;7.70;7.10;;;17.70;99.90;;;;;;5072299;28;20259;-49
2022/07/03 05:14:10;;;;;;;7.63;7.13;;;17.70;99.90;;;;;;5071524;28;20437;-49
2022/07/03 05:16:35;;;;;;;7.83;7.17;;;17.80;99.90;;;;;;5072416;28;20769;-48
2022/07/03 05:19:01;;;;;;;7.80;7.20;;;17.90;99.90;;;;;;5070224;28;20205;-51
2022/07/03 05:21:27;;;;;;;7.60;7.00;;;18.00;99.90;;;;;;5071458;28;20185;-53
2022/07/03 05:23:52;;;;;;;7.50;7.00;;;18.10;99.90;;;;;;5072094;28;20180;-51
2022/07/03 05:26:18;;;;;;;7.70;7.10;;;18.20;99.90;;;;;;5071275;28;20345;-52
2022/07/03 05:28:44;;;;;;;7.73;7.13;;;18.20;99.90;;;;;;5071846;28;20207;-51
2022/07/03 05:31:09;;;;;;;7.80;7.17;;;18.30;99.90;;;;;;5059284;28;20507;-49
2022/07/03 05:33:36;;;;;;;7.30;6.80;;;18.40;99.90;;;;;;5071665;28;20253;-53
2022/07/03 05:36:01;;;;;;;7.97;7.37;;;18.40;99.90;;;;;;5068830;28;20178;-55
2022/07/03 05:41:11;;;;;;;7.67;7.17;;;18.60;99.90;;;;;;5071860;28;20228;-49
2022/07/03 05:43:37;;;;;;;7.83;7.33;;;18.70;99.90;;;;;;5071282;28;20428;-54
2022/07/03 05:46:04;;;;;;;8.00;7.40;;;18.70;99.90;;;;;;5068793;28;20170;-48
2022/07/03 05:48:30;;;;;;;8.07;7.50;;;18.80;99.90;;;;;;5071302;28;20196;-50
2022/07/03 05:50:56;;;;;;;7.53;7.03;;;18.90;99.90;;;;;;5068004;28;20498;-53
2022/07/03 05:53:22;;;;;;;7.77;7.17;;;19.00;99.90;;;;;;5063704;28;20528;-52
2022/07/03 05:55:48;;;;;;;8.43;7.47;;;19.10;99.90;;;;;;5068118;28;20200;-50
2022/07/03 05:58:14;;;;;;;8.27;7.67;;;19.10;99.90;;;;;;5068408;28;20186;-51
2022/07/03 06:00:39;;;;;;;7.90;7.40;;;19.20;99.90;;;;;;5069405;28;20487;-52
2022/07/03 06:03:06;;;;;;;7.80;7.20;;;19.20;99.90;;;;;;5071158;28;20522;-53
2022/07/03 06:05:35;;;;;;;7.30;6.80;;;19.30;99.90;;;;;;5067495;28;21342;-49
2022/07/03 06:08:00;;;;;;;7.50;6.90;;;19.40;99.90;;;;;;5065766;28;20282;-54
2022/07/03 06:10:28;;;;;;;7.63;7.13;;;19.50;99.90;;;;;;5068568;28;20477;-51
2022/07/03 06:12:53;;;;;;;8.33;7.70;;;19.60;99.90;;;;;;5069617;28;20230;-48
2022/07/03 06:15:19;;;;;;;8.10;7.50;;;19.70;99.90;;;;;;5069334;28;20450;-54
2022/07/03 06:17:45;;;;;;;7.97;7.43;;;19.70;99.90;;;;;;5069377;28;20186;-50
2022/07/03 06:20:12;;;;;;;8.00;7.40;;;19.80;99.90;;;;;;5051537;28;20535;-55
2022/07/03 06:22:38;;;;;;;8.47;7.80;;;19.90;99.90;;;;;;5069299;28;20355;-51
2022/07/03 06:25:05;;;;;;;8.20;7.40;;;20.00;99.90;;;;;;5069121;28;20778;-50
2022/07/03 06:27:31;;;;;;;7.80;7.20;;;20.10;99.90;;;;;;5066815;28;20408;-53
2022/07/03 06:29:57;;;;;;;7.57;7.07;;;20.20;99.90;;;;;;5068670;28;20431;-52
2022/07/03 06:32:22;;;;;;;7.90;7.30;;;20.30;99.90;;;;;;5069141;28;20439;-56
2022/07/03 06:34:48;;;;;;;8.20;7.67;;;20.30;99.90;;;;;;5069331;28;20189;-50
2022/07/03 06:37:14;;;;;;;7.83;7.23;;;20.40;99.90;;;;;;5069293;28;20961;-53
2022/07/03 06:39:40;;;;;;;8.00;7.40;;;20.60;99.90;;;;;;5068937;28;20475;-49
2022/07/03 06:42:06;;;;;;;7.70;6.93;;;20.60;99.90;;;;;;5068810;28;20187;-51
2022/07/03 06:44:32;;;;;;;7.17;6.67;;;20.70;99.90;;;;;;5068928;28;20431;-54
2022/07/03 06:46:58;;;;;;;7.43;6.93;;;20.80;99.90;;;;;;5069084;28;20425;-52
2022/07/03 06:49:24;;;;;;;7.17;6.70;;;20.90;99.90;;;;;;5069049;28;20632;-49
2022/07/03 06:51:49;;;;;;;8.87;8.27;;;21.00;99.90;;;;;;5068512;28;20189;-52
2022/07/03 06:54:15;;;;;;;7.80;7.30;;;21.10;99.90;;;;;;5068855;28;20431;-54
2022/07/03 06:56:42;;;;;;;7.70;7.20;;;21.20;99.90;;;;;;5068786;28;20211;-52
2022/07/03 06:59:08;;;;;;;6.83;6.23;;;21.30;99.90;;;;;;5068335;28;20237;-55
2022/07/03 07:01:34;;;;;;;7.80;7.30;;;21.40;99.90;;;;;;5068480;28;20417;-52
2022/07/03 07:04:00;;;;;;;8.50;7.90;;;21.50;99.90;;;;;;5068633;28;20446;-52
2022/07/03 07:06:25;;;;;;;7.50;7.00;;;21.60;99.90;;;;;;5068171;28;20987;-48
2022/07/03 07:08:51;;;;;;;7.53;7.07;;;21.70;99.90;;;;;;5068448;28;20498;-51
2022/07/03 07:11:17;;;;;;;6.83;6.33;;;21.90;99.90;;;;;;5068463;28;20187;-53
2022/07/03 07:13:42;;;;;;;7.20;6.70;;;22.00;99.50;;;;;;5068340;28;20226;-51
2022/07/03 07:16:08;;;;;;;7.60;7.10;;;22.20;99.10;;;;;;5067962;28;20185;-54
2022/07/03 07:18:34;;;;;;;7.40;6.90;;;22.30;98.70;;;;;;5068545;28;20192;-55
2022/07/03 07:21:00;;;;;;;7.60;7.00;;;22.40;98.00;;;;;;5068360;28;20185;-52
2022/07/03 07:23:26;;;;;;;6.83;6.37;;;22.60;95.80;;;;;;5063627;28;20544;-53
2022/07/03 07:25:51;;;;;;;7.60;7.10;;;22.70;95.90;;;;;;5041698;28;20434;-54
2022/07/03 07:28:17;;;;;;;6.77;6.37;;;22.80;94.30;;;;;;5068172;28;20635;-54
2022/07/03 07:30:42;;;;;;;6.77;6.30;;;23.00;93.80;;;;;;5057811;28;20185;-52
2022/07/03 07:33:09;;;;;;;6.30;5.90;;;23.10;91.90;;;;;;5063258;28;20668;-50
2022/07/03 07:35:34;;;;;;;7.30;6.80;;;23.20;91.80;;;;;;5066926;28;20192;-51
2022/07/03 07:38:00;;;;;;;7.40;6.90;;;23.40;91.40;;;;;;5063925;28;20485;-50
2022/07/03 07:40:25;;;;;;;7.00;6.50;;;23.50;90.70;;;;;;5066187;28;20300;-54
2022/07/03 07:42:51;;;;;;;6.80;6.40;;;23.80;89.90;;;;;;5050151;28;20174;-51
2022/07/03 07:45:17;;;;;;;7.20;6.80;;;23.90;88.10;;;;;;5065551;28;20193;-53
2022/07/03 07:47:43;;;;;;;7.10;6.60;;;24.00;86.70;;;;;;5067978;28;20217;-51
2022/07/03 07:50:09;;;;;;;7.30;6.80;;;24.10;83.10;;;;;;5065862;28;20293;-54
2022/07/03 07:52:35;;;;;;;7.40;6.90;;;24.00;82.60;;;;;;5065144;28;20256;-52
2022/07/03 07:55:01;;;;;;;7.13;6.63;;;24.00;82.40;;;;;;5065291;28;20816;-55
2022/07/03 07:57:34;;;;;;;7.17;6.77;;;24.10;81.90;;;;;;5066467;28;20508;-54
2022/07/03 08:00:07;;;;;;;7.77;7.07;;;24.30;81.80;;;;;;5064181;28;20231;-50
2022/07/03 08:08:02;;;;;;;6.37;5.97;;;24.60;79.90;;;;;;5065521;28;20463;-51
2022/07/03 08:10:28;;;;;;;6.93;6.37;;;24.80;75.80;;;;;;5067857;28;20495;-56
2022/07/03 08:12:53;;;;;;;7.67;6.90;;;24.90;77.10;;;;;;5065824;28;20433;-55
2022/07/03 08:15:19;;;;;;;6.93;6.53;;;25.00;75.70;;;;;;5068317;28;20220;-48
2022/07/03 08:17:45;;;;;;;7.00;6.50;;;25.10;74.30;;;;;;5069070;28;20182;-49
2022/07/03 08:20:10;;;;;;;6.63;6.23;;;25.20;73.40;;;;;;5049886;28;20225;-54
2022/07/03 08:22:36;;;;;;;6.70;6.30;;;25.30;72.60;;;;;;5069153;28;20182;-57
2022/07/03 08:25:02;;;;;;;6.20;5.80;;;25.40;72.60;;;;;;5068141;28;20196;-52
2022/07/03 08:27:27;;;;;;;6.97;6.57;;;25.50;71.10;;;;;;5065116;28;20189;-51
2022/07/03 08:29:53;;;;;;;6.97;6.47;;;25.60;69.70;;;;;;5068791;28;20183;-52
2022/07/03 08:32:18;;;;;;;6.53;6.03;;;25.90;68.90;;;;;;5068677;28;20188;-53
2022/07/03 08:34:44;;;;;;;6.23;5.83;;;26.10;69.40;;;;;;5071318;28;20192;-51
2022/07/03 08:37:09;;;;;;;6.30;5.90;;;26.30;66.50;;;;;;5072083;28;20248;-54
2022/07/03 08:39:35;;;;;;;7.33;6.93;;;26.50;64.80;;;;;;5069570;28;20215;-52
2022/07/03 08:42:01;;;;;;;7.20;6.70;;;26.80;65.20;;;;;;5063672;28;20188;-52
2022/07/03 08:44:28;;;;;;;7.03;6.53;;;27.20;61.90;;;;;;5068411;28;20185;-50
2022/07/03 08:46:55;;;;;;;7.07;6.53;;;27.40;60.60;;;;;;5069366;28;20435;-53
2022/07/03 08:49:22;;;;;;;6.60;6.20;;;27.60;58.60;;;;;;5071738;28;20411;-52
2022/07/03 08:51:49;;;;;;;6.87;6.47;;;27.70;57.50;;;;;;5071541;28;20492;-56
2022/07/03 08:54:15;;;;;;;6.60;6.20;;;27.70;56.60;;;;;;5065270;28;20431;-51
2022/07/03 08:56:42;;;;;;;6.40;6.00;;;27.80;55.40;;;;;;5069350;28;20412;-50
2022/07/03 08:59:08;;;;;;;6.70;6.30;;;27.60;55.70;;;;;;5071267;28;20299;-54
2022/07/03 09:01:34;;;;;;;6.43;6.13;;;27.70;55.20;;;;;;5070444;28;20432;-50
2022/07/03 09:04:01;;;;;;;6.60;6.20;;;27.80;55.30;;;;;;5066791;28;20182;-53
2022/07/03 09:06:33;;;;;;;6.30;6.00;;;27.90;55.20;;;;;;5063554;28;20432;-54
2022/07/03 09:09:02;;;;;;;6.50;6.10;;;27.90;55.10;;;;;;5069853;28;20415;-54
2022/07/03 09:11:28;;;;;;;6.40;6.00;;;27.90;54.70;;;;;;5049789;28;20954;-52
2022/07/03 09:13:54;;;;;;;7.20;6.80;;;28.00;53.90;;;;;;5069288;28;20514;-55
2022/07/03 09:16:19;;;;;;;6.67;6.27;;;28.10;54.10;;;;;;5063545;28;20220;-53
2022/07/03 09:18:45;;;;;;;6.47;6.17;;;28.00;53.90;;;;;;5069644;28;20186;-51
2022/07/03 09:21:11;;;;;;;6.97;6.57;;;28.00;54.20;;;;;;5070692;28;20246;-50
2022/07/03 09:23:42;;;;;;;6.67;6.20;;;28.00;54.10;;;;;;5068171;28;20993;-52
2022/07/03 09:26:13;;;;;;;8.80;8.30;;;27.80;55.00;;;;;;5069245;28;20779;-52
2022/07/03 09:28:44;;;;;;;7.13;6.73;;;27.80;54.60;;;;;;5069592;28;20447;-54
2022/07/03 09:31:15;;;;;;;6.43;6.13;;;28.00;54.50;;;;;;5070169;28;20515;-53
2022/07/03 09:33:56;;;;;;;6.47;6.10;;;28.10;53.30;;;;;;5070775;28;20531;-52
2022/07/03 09:36:36;;;;;;;6.53;6.23;;;28.30;53.00;;;;;;5068828;28;20435;-52
2022/07/03 09:39:20;;;;;;;6.70;6.30;;;28.50;53.00;;;;;;5071093;28;20451;-53
2022/07/03 09:41:52;;;;;;;8.20;7.70;;;28.60;52.30;;;;;;5069289;28;20439;-54
2022/07/03 09:44:40;;;;;;;6.87;6.47;;;28.70;52.80;;;;;;5062432;28;20859;-55
2022/07/03 09:47:16;;;;;;;6.67;6.27;;;28.90;51.20;;;;;;5059762;28;20473;-51
2022/07/03 09:50:15;;;;;;;7.63;7.13;;;29.10;50.70;;;;;;5068247;28;20416;-53
2022/07/03 09:52:45;;;;;;;25.00;23.30;;;29.20;49.20;;;;;;5006364;28;21049;-54
2022/07/03 09:55:10;;;;;;;8.40;7.70;;;29.20;49.30;;;;;;5066597;28;20440;-53
2022/07/03 09:57:41;;;;;;;13.53;12.57;;;29.20;49.10;;;;;;5069311;28;20817;-54
2022/07/03 10:00:20;;;;;;;11.73;10.83;;;29.30;49.40;;;;;;5069024;28;20229;-51
2022/07/03 10:03:03;;;;;;;7.23;6.83;;;29.50;48.30;;;;;;5069842;28;20428;-51
2022/07/03 10:05:29;;;;;;;6.97;6.57;;;29.80;46.70;;;;;;5069804;28;20437;-54
2022/07/03 10:07:56;;;;;;;6.07;5.77;;;29.90;44.90;;;;;;5070267;28;20906;-52
2022/07/03 10:10:24;;;;;;;6.27;5.97;;;30.10;45.10;;;;;;5070036;28;20771;-55
2022/07/03 10:12:53;;;;;;;5.97;5.60;;;30.20;43.20;;;;;;5066636;28;20459;-50
2022/07/03 10:15:20;;;;;;;5.90;5.60;;;30.00;42.90;;;;;;5045571;28;20444;-51
2022/07/03 10:17:50;;;;;;;6.43;6.13;;;30.00;42.30;;;;;;5055158;28;20431;-51
2022/07/03 10:20:28;;;;;;;6.40;5.87;;;30.00;42.20;;;;;;5061705;28;20508;-55
2022/07/03 10:22:55;;;;;;;6.17;5.87;;;30.10;42.40;;;;;;5069845;28;20411;-51
2022/07/03 10:25:22;;;;;;;6.57;6.17;;;29.90;41.10;;;;;;5063542;28;20444;-53
2022/07/03 10:27:48;;;;;;;5.97;5.67;;;30.20;38.70;;;;;;5063573;28;20942;-50
2022/07/03 10:30:19;;;;;;;6.27;5.87;;;30.30;38.90;;;;;;5067680;28;20447;-52
2022/07/03 10:32:47;;;;;;;6.30;5.90;;;30.50;39.60;;;;;;5068113;28;20430;-55
2022/07/03 10:35:19;;;;;;;6.30;6.00;;;30.60;40.60;;;;;;5060033;28;20434;-54
2022/07/03 10:38:00;;;;;;;6.40;6.10;;;30.70;38.70;;;;;;5068031;28;20423;-54
2022/07/03 10:46:24;;;;;;;6.10;5.80;;;29.80;38.20;;;;;;5062745;28;20457;-52
2022/07/03 10:49:07;;;;;;;7.70;7.10;;;29.60;37.40;;;;;;5067577;28;20570;-56
2022/07/03 10:51:53;;;;;;;7.07;6.67;;;29.40;37.50;;;;;;5066799;28;20895;-55
2022/07/03 10:54:28;;;;;;;6.80;6.50;;;29.40;38.20;;;;;;5060165;28;21470;-52
2022/07/03 10:57:00;;;;;;;6.80;6.40;;;29.40;39.40;;;;;;5062430;28;20460;-51
2022/07/03 10:59:32;;;;;;;6.63;6.33;;;29.60;39.00;;;;;;5067621;28;20562;-51
2022/07/03 11:02:40;;;;;;;6.27;5.87;;;29.70;38.10;;;;;;5056229;28;20408;-50
2022/07/03 11:05:06;;;;;;;6.77;6.47;;;29.60;39.20;;;;;;5029973;28;20447;-52
2022/07/03 11:07:33;;;;;;;6.87;6.50;;;29.50;39.50;;;;;;5058136;28;21140;-53
2022/07/03 11:10:13;;;;;;;6.90;6.50;;;29.50;41.20;;;;;;5065369;28;20450;-55
2022/07/03 11:13:00;;;;;;;6.80;6.40;;;30.00;37.70;;;;;;5069149;28;20414;-52
2022/07/03 11:15:46;;;;;;;6.53;6.13;;;29.90;36.80;;;;;;5067617;28;20447;-54
2022/07/03 11:18:15;;;;;;;6.03;5.70;;;30.10;36.90;;;;;;5067833;28;20466;-54
2022/07/03 11:20:44;;;;;;;6.57;6.27;;;30.20;37.80;;;;;;5066176;28;20553;-52
2022/07/03 11:23:09;;;;;;;5.87;5.57;;;30.40;36.60;;;;;;5067365;28;20444;-52
2022/07/03 11:25:39;;;;;;;6.77;6.37;;;30.60;37.40;;;;;;5065996;28;20798;-54
2022/07/03 11:28:05;;;;;;;6.80;6.40;;;30.70;38.20;;;;;;5068533;28;20227;-54
2022/07/03 11:30:34;;;;;;;6.50;6.10;;;31.00;38.10;;;;;;5067869;28;20752;-54
2022/07/03 11:33:00;;;;;;;6.87;6.40;;;31.20;37.70;;;;;;5066484;28;20432;-53
2022/07/03 11:35:50;;;;;;;6.27;5.97;;;31.30;37.00;;;;;;5067389;28;20898;-52
2022/07/03 11:38:21;;;;;;;6.00;5.70;;;31.30;37.00;;;;;;5067107;28;20439;-53
2022/07/03 11:40:50;;;;;;;6.27;5.97;;;31.50;35.00;;;;;;5049946;28;20479;-51
2022/07/03 11:43:15;;;;;;;5.70;5.40;;;31.80;35.40;;;;;;5066536;28;20436;-54
2022/07/03 11:45:42;;;;;;;6.17;5.87;;;32.10;34.90;;;;;;5068264;28;20423;-56
2022/07/03 11:48:09;;;;;;;6.40;6.10;;;32.40;34.70;;;;;;5067391;28;20579;-52
2022/07/03 11:50:44;;;;;;;5.90;5.60;;;32.80;32.60;;;;;;5065749;28;21325;-56
2022/07/03 11:53:23;;;;;;;6.13;5.83;;;32.90;31.70;;;;;;5067171;28;20947;-51
2022/07/03 11:55:54;;;;;;;6.20;5.90;;;33.20;31.10;;;;;;5066027;28;20438;-55
2022/07/03 11:58:20;;;;;;;5.90;5.60;;;33.40;29.80;;;;;;5065575;28;20446;-52
2022/07/03 12:00:46;;;;;;;6.10;5.80;;;33.50;30.10;;;;;;5065742;28;20831;-54
2022/07/03 12:03:20;;;;;;;6.70;6.30;;;33.50;29.70;;;;;;5066151;28;20431;-54
2022/07/03 12:06:01;;;;;;;6.10;5.80;;;33.60;30.00;;;;;;5066918;28;20712;-55
2022/07/03 12:08:30;;;;;;;6.30;6.00;;;33.80;29.90;;;;;;5064236;28;20415;-52
2022/07/03 12:10:58;;;;;;;6.47;6.17;;;33.50;29.30;;;;;;5066921;28;20419;-54
2022/07/03 12:13:25;;;;;;;6.60;6.30;;;33.40;29.90;;;;;;5066690;28;20418;-57
2022/07/03 12:15:51;;;;;;;6.90;6.60;;;33.90;28.80;;;;;;5066655;28;20446;-52
2022/07/03 12:18:17;;;;;;;6.43;6.13;;;34.00;29.30;;;;;;5068011;28;20779;-55
2022/07/03 12:20:42;;;;;;;6.20;5.90;;;34.20;29.30;;;;;;5067583;28;20463;-55
2022/07/03 12:23:08;;;;;;;6.40;6.00;;;34.50;29.10;;;;;;5068169;28;20189;-52
2022/07/03 12:25:40;;;;;;;7.00;6.60;;;34.70;28.50;;;;;;5067028;28;20173;-52
2022/07/03 12:28:09;;;;;;;6.30;6.00;;;35.00;27.70;;;;;;5067685;28;20408;-53
2022/07/03 12:30:36;;;;;;;6.10;5.80;;;35.30;27.50;;;;;;5065785;28;20829;-54
2022/07/03 12:33:02;;;;;;;6.50;6.20;;;35.40;26.50;;;;;;5050780;28;20511;-55
2022/07/03 12:35:29;;;;;;;6.40;6.10;;;35.40;26.30;;;;;;5065784;28;21258;-53
2022/07/03 12:37:55;;;;;;;6.37;6.07;;;35.30;27.00;;;;;;5067173;28;20427;-55
2022/07/03 12:40:20;;;;;;;6.17;5.90;;;35.40;26.30;;;;;;5065826;28;20467;-56
2022/07/03 12:42:48;;;;;;;6.70;6.40;;;35.40;26.50;;;;;;5067311;28;20423;-55
2022/07/03 12:45:19;;;;;;;6.57;6.27;;;35.40;26.40;;;;;;5065798;28;20190;-54
2022/07/03 12:47:45;;;;;;;6.20;5.90;;;35.20;26.60;;;;;;5063502;28;20435;-55
2022/07/03 12:50:12;;;;;;;6.30;6.00;;;35.10;26.20;;;;;;5066181;28;20518;-55
2022/07/03 12:52:53;;;;;;;6.00;5.70;;;35.00;25.90;;;;;;5066107;28;20427;-54
2022/07/03 12:55:27;;;;;;;6.60;6.30;;;35.30;27.20;;;;;;5066415;28;20974;-56
2022/07/03 13:00:57;;;;;;;5.70;5.40;;;36.20;25.80;;;;;;5057707;28;20506;-54
2022/07/03 13:03:30;;;;;;;6.43;6.10;;;36.60;24.20;;;;;;5057031;28;20429;-53
2022/07/03 13:05:57;;;;;;;6.90;6.50;;;36.70;24.10;;;;;;5057154;28;20244;-53
2022/07/03 13:08:22;;;;;;;6.00;5.67;;;37.10;22.90;;;;;;5058842;28;20432;-57
2022/07/03 13:10:58;;;;;;;5.83;5.60;;;37.40;23.50;;;;;;5056627;28;21322;-55